sensor_id;sensor_type;location;lat;lon;timestamp;temperature;humidity
17918;DHT22;9084;50.956;3.106;2023-12-22T00:01:54;10.80;1.00
17918;DHT22;9084;50.956;3.106;2023-12-22T00:04:22;10.80;1.00
17918;DHT22;9084;50.956;3.106;2023-12-22T00:06:50;10.80;1.00
17918;DHT22;9084;50.956;3.106;2023-12-22T00:09:19;10.80;1.00
17918;DHT22;9084;50.956;3.106;2023-12-22T00:11:45;10.70;34.70
17918;DHT22;9084;50.956;3.106;2023-12-22T00:14:11;10.50;80.20
17918;DHT22;9084;50.956;3.106;2023-12-22T00:16:37;10.40;99.90
17918;DHT22;9084;50.956;3.106;2023-12-22T00:19:03;10.20;99.90
17918;DHT22;9084;50.956;3.106;2023-12-22T00:21:29;10.00;74.60
17918;DHT22;9084;50.956;3.106;2023-12-22T00:23:55;9.80;99.90
17918;DHT22;9084;50.956;3.106;2023-12-22T00:26:20;9.80;99.90
17918;DHT22;9084;50.956;3.106;2023-12-22T00:28:46;9.70;99.90
17918;DHT22;9084;50.956;3.106;2023-12-22T00:31:12;9.50;99.90
17918;DHT22;9084;50.956;3.106;2023-12-22T00:33:40;9.40;99.90
17918;DHT22;9084;50.956;3.106;2023-12-22T00:36:07;9.30;99.90
17918;DHT22;9084;50.956;3.106;2023-12-22T00:38:33;9.20;99.90
17918;DHT22;9084;50.956;3.106;2023-12-22T00:41:01;9.10;99.90
17918;DHT22;9084;50.956;3.106;2023-12-22T00:43:29;9.00;99.90
17918;DHT22;9084;50.956;3.106;2023-12-22T00:45:55;9.00;99.90
17918;DHT22;9084;50.956;3.106;2023-12-22T00:48:23;9.00;99.90
17918;DHT22;9084;50.956;3.106;2023-12-22T00:50:51;9.00;99.90
17918;DHT22;9084;50.956;3.106;2023-12-22T00:53:19;9.10;99.90
17918;DHT22;9084;50.956;3.106;2023-12-22T00:55:48;9.10;99.90
17918;DHT22;9084;50.956;3.106;2023-12-22T00:58:13;9.10;99.90
17918;DHT22;9084;50.956;3.106;2023-12-22T01:00:41;9.20;99.90
17918;DHT22;9084;50.956;3.106;2023-12-22T01:03:07;9.30;99.90
17918;DHT22;9084;50.956;3.106;2023-12-22T01:05:32;9.30;99.90
17918;DHT22;9084;50.956;3.106;2023-12-22T01:07:58;9.40;99.90
17918;DHT22;9084;50.956;3.106;2023-12-22T01:10:23;9.50;99.90
17918;DHT22;9084;50.956;3.106;2023-12-22T01:12:51;9.50;99.90
17918;DHT22;9084;50.956;3.106;2023-12-22T01:15:19;9.60;99.90
17918;DHT22;9084;50.956;3.106;2023-12-22T01:17:48;9.20;99.90
17918;DHT22;9084;50.956;3.106;2023-12-22T01:20:13;8.70;71.60
17918;DHT22;9084;50.956;3.106;2023-12-22T01:22:43;8.40;99.90
17918;DHT22;9084;50.956;3.106;2023-12-22T01:25:09;8.30;99.90
17918;DHT22;9084;50.956;3.106;2023-12-22T01:27:35;8.20;99.90
17918;DHT22;9084;50.956;3.106;2023-12-22T01:30:00;8.20;99.90
17918;DHT22;9084;50.956;3.106;2023-12-22T01:32:26;8.30;99.90
17918;DHT22;9084;50.956;3.106;2023-12-22T01:34:51;8.30;99.90
17918;DHT22;9084;50.956;3.106;2023-12-22T01:37:17;8.30;99.90
17918;DHT22;9084;50.956;3.106;2023-12-22T01:39:43;8.30;99.90
17918;DHT22;9084;50.956;3.106;2023-12-22T01:42:08;8.40;99.90
17918;DHT22;9084;50.956;3.106;2023-12-22T01:44:34;8.40;99.90
17918;DHT22;9084;50.956;3.106;2023-12-22T01:47:00;8.50;99.90
17918;DHT22;9084;50.956;3.106;2023-12-22T01:49:25;8.60;99.90
17918;DHT22;9084;50.956;3.106;2023-12-22T01:51:55;8.60;99.90
17918;DHT22;9084;50.956;3.106;2023-12-22T01:54:20;8.60;99.90
17918;DHT22;9084;50.956;3.106;2023-12-22T01:56:48;8.70;99.90
17918;DHT22;9084;50.956;3.106;2023-12-22T01:59:14;8.70;99.90
17918;DHT22;9084;50.956;3.106;2023-12-22T02:01:42;8.70;99.90
17918;DHT22;9084;50.956;3.106;2023-12-22T02:04:14;8.80;99.90
17918;DHT22;9084;50.956;3.106;2023-12-22T02:06:40;8.80;99.90
17918;DHT22;9084;50.956;3.106;2023-12-22T02:09:09;8.90;99.90
17918;DHT22;9084;50.956;3.106;2023-12-22T02:11:39;8.90;99.90
17918;DHT22;9084;50.956;3.106;2023-12-22T02:14:05;8.90;99.90
17918;DHT22;9084;50.956;3.106;2023-12-22T02:16:46;9.00;99.90
17918;DHT22;9084;50.956;3.106;2023-12-22T02:19:40;9.10;99.90
17918;DHT22;9084;50.956;3.106;2023-12-22T02:22:08;9.20;99.90
17918;DHT22;9084;50.956;3.106;2023-12-22T02:24:34;9.20;99.90
17918;DHT22;9084;50.956;3.106;2023-12-22T02:27:21;9.10;99.90
17918;DHT22;9084;50.956;3.106;2023-12-22T02:32:49;9.10;99.90
17918;DHT22;9084;50.956;3.106;2023-12-22T02:35:19;9.10;99.90
17918;DHT22;9084;50.956;3.106;2023-12-22T02:37:49;9.10;99.90
17918;DHT22;9084;50.956;3.106;2023-12-22T02:40:15;9.10;99.90
17918;DHT22;9084;50.956;3.106;2023-12-22T02:42:44;9.00;99.90
17918;DHT22;9084;50.956;3.106;2023-12-22T02:45:17;9.00;99.90
17918;DHT22;9084;50.956;3.106;2023-12-22T02:47:48;9.00;99.90
17918;DHT22;9084;50.956;3.106;2023-12-22T02:50:15;9.00;99.90
17918;DHT22;9084;50.956;3.106;2023-12-22T02:52:41;9.00;99.90
17918;DHT22;9084;50.956;3.106;2023-12-22T02:55:07;9.10;99.90
17918;DHT22;9084;50.956;3.106;2023-12-22T02:57:33;9.10;99.90
17918;DHT22;9084;50.956;3.106;2023-12-22T02:59:59;9.10;99.90
17918;DHT22;9084;50.956;3.106;2023-12-22T03:02:29;9.10;99.90
17918;DHT22;9084;50.956;3.106;2023-12-22T03:04:55;9.10;99.90
17918;DHT22;9084;50.956;3.106;2023-12-22T03:07:23;9.10;99.90
17918;DHT22;9084;50.956;3.106;2023-12-22T03:09:49;9.20;99.90
17918;DHT22;9084;50.956;3.106;2023-12-22T03:12:14;9.20;99.90
17918;DHT22;9084;50.956;3.106;2023-12-22T03:14:40;9.20;99.90
17918;DHT22;9084;50.956;3.106;2023-12-22T03:17:06;9.30;99.90
17918;DHT22;9084;50.956;3.106;2023-12-22T03:19:36;9.30;99.90
17918;DHT22;9084;50.956;3.106;2023-12-22T03:22:04;9.40;99.90
17918;DHT22;9084;50.956;3.106;2023-12-22T03:24:29;9.40;99.90
17918;DHT22;9084;50.956;3.106;2023-12-22T03:27:00;9.40;99.90
17918;DHT22;9084;50.956;3.106;2023-12-22T03:29:28;9.50;99.90
17918;DHT22;9084;50.956;3.106;2023-12-22T03:31:56;9.50;99.90
17918;DHT22;9084;50.956;3.106;2023-12-22T03:34:21;9.50;99.90
17918;DHT22;9084;50.956;3.106;2023-12-22T03:36:47;9.50;99.90
17918;DHT22;9084;50.956;3.106;2023-12-22T03:39:17;9.60;99.90
17918;DHT22;9084;50.956;3.106;2023-12-22T03:41:43;9.60;97.30
17918;DHT22;9084;50.956;3.106;2023-12-22T03:44:09;9.60;98.80
17918;DHT22;9084;50.956;3.106;2023-12-22T03:46:34;9.60;98.20
17918;DHT22;9084;50.956;3.106;2023-12-22T03:49:02;9.50;99.90
17918;DHT22;9084;50.956;3.106;2023-12-22T03:51:28;9.60;96.80
17918;DHT22;9084;50.956;3.106;2023-12-22T03:53:54;9.60;95.30
17918;DHT22;9084;50.956;3.106;2023-12-22T03:56:19;9.60;93.70
17918;DHT22;9084;50.956;3.106;2023-12-22T03:58:45;9.70;92.60
17918;DHT22;9084;50.956;3.106;2023-12-22T04:01:14;9.70;90.20
17918;DHT22;9084;50.956;3.106;2023-12-22T04:03:42;9.70;89.30
17918;DHT22;9084;50.956;3.106;2023-12-22T04:06:08;9.70;94.90
17918;DHT22;9084;50.956;3.106;2023-12-22T04:08:34;9.70;1.00
17918;DHT22;9084;50.956;3.106;2023-12-22T04:10:59;9.70;1.00
17918;DHT22;9084;50.956;3.106;2023-12-22T04:13:30;9.70;1.00
17918;DHT22;9084;50.956;3.106;2023-12-22T04:15:55;9.70;1.00
17918;DHT22;9084;50.956;3.106;2023-12-22T04:18:23;9.70;1.00
17918;DHT22;9084;50.956;3.106;2023-12-22T04:20:49;9.80;1.00
17918;DHT22;9084;50.956;3.106;2023-12-22T04:23:19;9.80;1.00
17918;DHT22;9084;50.956;3.106;2023-12-22T04:25:44;9.70;1.00
17918;DHT22;9084;50.956;3.106;2023-12-22T04:28:10;9.70;1.00
17918;DHT22;9084;50.956;3.106;2023-12-22T04:30:36;9.70;1.00
17918;DHT22;9084;50.956;3.106;2023-12-22T04:33:02;9.70;1.00
17918;DHT22;9084;50.956;3.106;2023-12-22T04:35:27;9.70;1.00
17918;DHT22;9084;50.956;3.106;2023-12-22T04:37:55;9.70;1.00
17918;DHT22;9084;50.956;3.106;2023-12-22T04:40:26;9.70;1.00
17918;DHT22;9084;50.956;3.106;2023-12-22T04:42:55;9.60;1.00
17918;DHT22;9084;50.956;3.106;2023-12-22T04:45:21;9.70;1.00
17918;DHT22;9084;50.956;3.106;2023-12-22T04:47:49;9.70;5.90
17918;DHT22;9084;50.956;3.106;2023-12-22T04:50:17;9.60;5.00
17918;DHT22;9084;50.956;3.106;2023-12-22T04:52:42;9.70;22.10
17918;DHT22;9084;50.956;3.106;2023-12-22T04:55:08;9.70;23.50
17918;DHT22;9084;50.956;3.106;2023-12-22T04:57:34;9.70;21.90
17918;DHT22;9084;50.956;3.106;2023-12-22T04:59:59;9.60;22.90
17918;DHT22;9084;50.956;3.106;2023-12-22T05:02:25;9.60;43.50
17918;DHT22;9084;50.956;3.106;2023-12-22T05:04:51;9.70;49.40
17918;DHT22;9084;50.956;3.106;2023-12-22T05:07:19;9.60;67.70
17918;DHT22;9084;50.956;3.106;2023-12-22T05:09:44;9.70;66.50
17918;DHT22;9084;50.956;3.106;2023-12-22T05:12:12;9.70;70.50
17918;DHT22;9084;50.956;3.106;2023-12-22T05:14:41;9.70;79.60
17918;DHT22;9084;50.956;3.106;2023-12-22T05:17:06;9.70;90.00
17918;DHT22;9084;50.956;3.106;2023-12-22T05:19:32;9.70;94.30
17918;DHT22;9084;50.956;3.106;2023-12-22T05:21:58;9.80;92.80
17918;DHT22;9084;50.956;3.106;2023-12-22T05:24:23;9.90;97.00
17918;DHT22;9084;50.956;3.106;2023-12-22T05:26:49;9.90;99.90
17918;DHT22;9084;50.956;3.106;2023-12-22T05:29:17;9.90;99.90
17918;DHT22;9084;50.956;3.106;2023-12-22T05:31:43;9.80;99.90
17918;DHT22;9084;50.956;3.106;2023-12-22T05:34:08;9.70;99.90
17918;DHT22;9084;50.956;3.106;2023-12-22T05:36:35;9.70;99.90
17918;DHT22;9084;50.956;3.106;2023-12-22T05:39:01;9.70;99.90
17918;DHT22;9084;50.956;3.106;2023-12-22T05:41:27;9.60;99.90
17918;DHT22;9084;50.956;3.106;2023-12-22T05:43:55;9.60;99.90
17918;DHT22;9084;50.956;3.106;2023-12-22T05:46:20;9.60;99.90
17918;DHT22;9084;50.956;3.106;2023-12-22T05:48:48;9.50;99.90
17918;DHT22;9084;50.956;3.106;2023-12-22T05:51:14;9.50;99.90
17918;DHT22;9084;50.956;3.106;2023-12-22T05:53:40;9.60;99.90
17918;DHT22;9084;50.956;3.106;2023-12-22T05:56:17;9.60;99.90
17918;DHT22;9084;50.956;3.106;2023-12-22T05:58:45;9.70;99.90
17918;DHT22;9084;50.956;3.106;2023-12-22T06:01:20;9.70;99.90
17918;DHT22;9084;50.956;3.106;2023-12-22T06:03:46;9.80;99.90
17918;DHT22;9084;50.956;3.106;2023-12-22T06:06:14;9.80;99.90
17918;DHT22;9084;50.956;3.106;2023-12-22T06:08:40;9.80;99.90
17918;DHT22;9084;50.956;3.106;2023-12-22T06:11:06;9.80;99.90
17918;DHT22;9084;50.956;3.106;2023-12-22T06:13:34;9.80;99.90
17918;DHT22;9084;50.956;3.106;2023-12-22T06:15:59;9.80;99.90
17918;DHT22;9084;50.956;3.106;2023-12-22T06:18:25;9.80;99.90
17918;DHT22;9084;50.956;3.106;2023-12-22T06:20:55;9.80;99.90
17918;DHT22;9084;50.956;3.106;2023-12-22T06:23:23;9.80;99.90
17918;DHT22;9084;50.956;3.106;2023-12-22T06:25:49;9.80;99.90
17918;DHT22;9084;50.956;3.106;2023-12-22T06:28:15;9.80;99.90
17918;DHT22;9084;50.956;3.106;2023-12-22T06:30:42;9.80;99.90
17918;DHT22;9084;50.956;3.106;2023-12-22T06:33:08;9.70;99.90
17918;DHT22;9084;50.956;3.106;2023-12-22T06:35:36;9.70;99.90
17918;DHT22;9084;50.956;3.106;2023-12-22T06:38:03;9.70;99.90
17918;DHT22;9084;50.956;3.106;2023-12-22T06:40:31;9.70;99.90
17918;DHT22;9084;50.956;3.106;2023-12-22T06:42:56;9.70;99.90
17918;DHT22;9084;50.956;3.106;2023-12-22T06:45:22;9.70;99.90
17918;DHT22;9084;50.956;3.106;2023-12-22T06:47:47;9.60;99.90
17918;DHT22;9084;50.956;3.106;2023-12-22T06:50:13;9.70;99.90
17918;DHT22;9084;50.956;3.106;2023-12-22T06:52:43;9.70;99.90
17918;DHT22;9084;50.956;3.106;2023-12-22T06:55:09;9.70;99.90
17918;DHT22;9084;50.956;3.106;2023-12-22T06:57:37;9.70;99.90
17918;DHT22;9084;50.956;3.106;2023-12-22T07:00:06;9.70;99.90
17918;DHT22;9084;50.956;3.106;2023-12-22T07:02:32;9.70;99.90
17918;DHT22;9084;50.956;3.106;2023-12-22T07:07:52;9.70;99.90
17918;DHT22;9084;50.956;3.106;2023-12-22T07:10:19;9.70;99.90
17918;DHT22;9084;50.956;3.106;2023-12-22T07:12:47;9.70;99.90
17918;DHT22;9084;50.956;3.106;2023-12-22T07:15:17;9.70;99.90
17918;DHT22;9084;50.956;3.106;2023-12-22T07:17:43;9.70;99.90
17918;DHT22;9084;50.956;3.106;2023-12-22T07:20:09;9.70;99.90
17918;DHT22;9084;50.956;3.106;2023-12-22T07:22:35;9.80;99.90
17918;DHT22;9084;50.956;3.106;2023-12-22T07:25:01;9.80;99.90
17918;DHT22;9084;50.956;3.106;2023-12-22T07:27:26;9.80;99.90
17918;DHT22;9084;50.956;3.106;2023-12-22T07:29:52;9.80;99.90
17918;DHT22;9084;50.956;3.106;2023-12-22T07:32:17;9.80;99.90
17918;DHT22;9084;50.956;3.106;2023-12-22T07:34:43;9.90;99.90
17918;DHT22;9084;50.956;3.106;2023-12-22T07:37:09;9.90;99.90
17918;DHT22;9084;50.956;3.106;2023-12-22T07:39:36;9.90;99.90
17918;DHT22;9084;50.956;3.106;2023-12-22T07:42:02;9.90;99.90
17918;DHT22;9084;50.956;3.106;2023-12-22T07:44:28;9.90;99.90
17918;DHT22;9084;50.956;3.106;2023-12-22T07:47:02;9.90;99.90
17918;DHT22;9084;50.956;3.106;2023-12-22T07:49:28;9.90;99.90
17918;DHT22;9084;50.956;3.106;2023-12-22T07:51:54;9.90;99.90
17918;DHT22;9084;50.956;3.106;2023-12-22T07:54:19;10.00;99.90
17918;DHT22;9084;50.956;3.106;2023-12-22T07:56:45;10.00;99.90
17918;DHT22;9084;50.956;3.106;2023-12-22T07:59:11;10.00;99.90
17918;DHT22;9084;50.956;3.106;2023-12-22T08:01:36;10.00;99.90
17918;DHT22;9084;50.956;3.106;2023-12-22T08:04:02;10.10;99.90
17918;DHT22;9084;50.956;3.106;2023-12-22T08:06:30;10.10;99.90
17918;DHT22;9084;50.956;3.106;2023-12-22T08:08:55;10.10;99.90
17918;DHT22;9084;50.956;3.106;2023-12-22T08:11:21;10.10;99.90
17918;DHT22;9084;50.956;3.106;2023-12-22T08:13:49;10.20;99.90
17918;DHT22;9084;50.956;3.106;2023-12-22T08:16:17;10.20;99.90
17918;DHT22;9084;50.956;3.106;2023-12-22T08:18:43;10.30;99.90
17918;DHT22;9084;50.956;3.106;2023-12-22T08:21:09;10.30;99.90
17918;DHT22;9084;50.956;3.106;2023-12-22T08:23:34;10.40;99.90
17918;DHT22;9084;50.956;3.106;2023-12-22T08:26:00;10.40;99.90
17918;DHT22;9084;50.956;3.106;2023-12-22T08:28:26;10.30;99.90
17918;DHT22;9084;50.956;3.106;2023-12-22T08:30:53;10.40;99.90
17918;DHT22;9084;50.956;3.106;2023-12-22T08:33:19;10.50;99.90
17918;DHT22;9084;50.956;3.106;2023-12-22T08:35:44;10.50;99.90
17918;DHT22;9084;50.956;3.106;2023-12-22T08:38:12;10.60;99.90
17918;DHT22;9084;50.956;3.106;2023-12-22T08:40:43;10.60;99.90
17918;DHT22;9084;50.956;3.106;2023-12-22T08:43:09;10.60;99.90
17918;DHT22;9084;50.956;3.106;2023-12-22T08:45:37;10.60;99.90
17918;DHT22;9084;50.956;3.106;2023-12-22T08:48:03;10.60;99.90
17918;DHT22;9084;50.956;3.106;2023-12-22T08:50:33;10.60;99.90
17918;DHT22;9084;50.956;3.106;2023-12-22T08:52:58;10.60;99.90
17918;DHT22;9084;50.956;3.106;2023-12-22T08:55:26;10.70;99.90
17918;DHT22;9084;50.956;3.106;2023-12-22T08:57:54;10.70;99.90
17918;DHT22;9084;50.956;3.106;2023-12-22T09:00:22;10.70;99.90
17918;DHT22;9084;50.956;3.106;2023-12-22T09:02:48;10.70;99.90
17918;DHT22;9084;50.956;3.106;2023-12-22T09:05:13;10.70;99.90
17918;DHT22;9084;50.956;3.106;2023-12-22T09:07:39;10.70;99.90
17918;DHT22;9084;50.956;3.106;2023-12-22T09:10:07;10.70;99.90
17918;DHT22;9084;50.956;3.106;2023-12-22T09:12:32;10.70;99.90
17918;DHT22;9084;50.956;3.106;2023-12-22T09:15:00;10.80;99.90
17918;DHT22;9084;50.956;3.106;2023-12-22T09:17:29;10.80;99.90
17918;DHT22;9084;50.956;3.106;2023-12-22T09:19:54;10.80;99.90
17918;DHT22;9084;50.956;3.106;2023-12-22T09:22:22;10.70;99.90
17918;DHT22;9084;50.956;3.106;2023-12-22T09:24:50;10.80;99.90
17918;DHT22;9084;50.956;3.106;2023-12-22T09:27:16;10.80;99.90
17918;DHT22;9084;50.956;3.106;2023-12-22T09:29:41;10.80;99.90
17918;DHT22;9084;50.956;3.106;2023-12-22T09:32:07;10.90;99.90
17918;DHT22;9084;50.956;3.106;2023-12-22T09:34:33;10.90;99.90
17918;DHT22;9084;50.956;3.106;2023-12-22T09:36:59;10.90;99.90
17918;DHT22;9084;50.956;3.106;2023-12-22T09:39:24;10.90;99.90
17918;DHT22;9084;50.956;3.106;2023-12-22T09:41:50;10.90;99.90
17918;DHT22;9084;50.956;3.106;2023-12-22T09:44:20;11.00;99.90
17918;DHT22;9084;50.956;3.106;2023-12-22T09:46:48;11.00;99.90
17918;DHT22;9084;50.956;3.106;2023-12-22T09:49:17;11.10;99.90
17918;DHT22;9084;50.956;3.106;2023-12-22T09:51:46;11.10;99.90
17918;DHT22;9084;50.956;3.106;2023-12-22T09:54:13;11.10;99.90
17918;DHT22;9084;50.956;3.106;2023-12-22T09:56:41;11.10;99.90
17918;DHT22;9084;50.956;3.106;2023-12-22T09:59:13;11.00;99.90
17918;DHT22;9084;50.956;3.106;2023-12-22T10:01:44;11.00;99.90
17918;DHT22;9084;50.956;3.106;2023-12-22T10:04:12;11.00;99.90
17918;DHT22;9084;50.956;3.106;2023-12-22T10:06:41;11.00;99.90
17918;DHT22;9084;50.956;3.106;2023-12-22T10:09:07;11.10;99.90
17918;DHT22;9084;50.956;3.106;2023-12-22T10:11:35;11.10;99.90
17918;DHT22;9084;50.956;3.106;2023-12-22T10:14:04;11.10;99.90
17918;DHT22;9084;50.956;3.106;2023-12-22T10:16:30;11.10;99.90
17918;DHT22;9084;50.956;3.106;2023-12-22T10:18:56;11.10;99.90
17918;DHT22;9084;50.956;3.106;2023-12-22T10:21:24;11.10;99.90
17918;DHT22;9084;50.956;3.106;2023-12-22T10:23:50;11.20;99.90
17918;DHT22;9084;50.956;3.106;2023-12-22T10:26:16;11.20;99.90
17918;DHT22;9084;50.956;3.106;2023-12-22T10:28:42;11.20;99.90
17918;DHT22;9084;50.956;3.106;2023-12-22T10:31:09;11.30;99.90
17918;DHT22;9084;50.956;3.106;2023-12-22T10:33:34;11.30;99.90
17918;DHT22;9084;50.956;3.106;2023-12-22T10:36:00;11.30;99.90
17918;DHT22;9084;50.956;3.106;2023-12-22T10:38:33;11.40;99.90
17918;DHT22;9084;50.956;3.106;2023-12-22T10:41:01;11.40;99.90
17918;DHT22;9084;50.956;3.106;2023-12-22T10:43:29;11.40;99.90
17918;DHT22;9084;50.956;3.106;2023-12-22T10:45:55;11.50;99.90
17918;DHT22;9084;50.956;3.106;2023-12-22T10:48:22;11.50;99.90
17918;DHT22;9084;50.956;3.106;2023-12-22T10:50:48;11.50;99.90
17918;DHT22;9084;50.956;3.106;2023-12-22T10:53:15;11.50;99.90
17918;DHT22;9084;50.956;3.106;2023-12-22T10:55:46;11.50;99.90
17918;DHT22;9084;50.956;3.106;2023-12-22T10:58:12;11.60;99.90
17918;DHT22;9084;50.956;3.106;2023-12-22T11:00:40;11.60;99.90
17918;DHT22;9084;50.956;3.106;2023-12-22T11:03:12;11.60;99.90
17918;DHT22;9084;50.956;3.106;2023-12-22T11:05:45;11.60;99.90
17918;DHT22;9084;50.956;3.106;2023-12-22T11:08:14;11.60;99.90
17918;DHT22;9084;50.956;3.106;2023-12-22T11:10:42;11.60;99.90
17918;DHT22;9084;50.956;3.106;2023-12-22T11:13:14;11.70;99.90
17918;DHT22;9084;50.956;3.106;2023-12-22T11:15:41;11.70;99.90
17918;DHT22;9084;50.956;3.106;2023-12-22T11:18:08;11.80;99.90
17918;DHT22;9084;50.956;3.106;2023-12-22T11:20:35;11.90;99.90
17918;DHT22;9084;50.956;3.106;2023-12-22T11:23:02;11.80;99.90
17918;DHT22;9084;50.956;3.106;2023-12-22T11:25:30;11.90;99.90
17918;DHT22;9084;50.956;3.106;2023-12-22T11:27:59;12.00;99.90
17918;DHT22;9084;50.956;3.106;2023-12-22T11:30:29;12.00;99.90
17918;DHT22;9084;50.956;3.106;2023-12-22T11:32:56;12.00;99.90
17918;DHT22;9084;50.956;3.106;2023-12-22T11:35:27;12.00;99.90
17918;DHT22;9084;50.956;3.106;2023-12-22T11:37:53;12.00;99.90
17918;DHT22;9084;50.956;3.106;2023-12-22T11:40:21;12.00;99.90
17918;DHT22;9084;50.956;3.106;2023-12-22T11:42:49;12.00;99.90
17918;DHT22;9084;50.956;3.106;2023-12-22T11:45:17;12.00;99.90
17918;DHT22;9084;50.956;3.106;2023-12-22T11:47:46;11.90;99.90
17918;DHT22;9084;50.956;3.106;2023-12-22T11:50:14;12.00;98.20
17918;DHT22;9084;50.956;3.106;2023-12-22T11:52:52;12.00;95.40
17918;DHT22;9084;50.956;3.106;2023-12-22T11:58:42;12.00;96.00
17918;DHT22;9084;50.956;3.106;2023-12-22T12:01:10;12.00;89.00
17918;DHT22;9084;50.956;3.106;2023-12-22T12:03:40;12.10;90.10
17918;DHT22;9084;50.956;3.106;2023-12-22T12:09:06;12.10;76.90
17918;DHT22;9084;50.956;3.106;2023-12-22T12:14:29;12.10;63.70
17918;DHT22;9084;50.956;3.106;2023-12-22T12:17:05;12.10;65.80
17918;DHT22;9084;50.956;3.106;2023-12-22T12:19:35;12.10;60.70
17918;DHT22;9084;50.956;3.106;2023-12-22T12:22:03;12.10;62.40
17918;DHT22;9084;50.956;3.106;2023-12-22T12:24:31;12.10;75.40
17918;DHT22;9084;50.956;3.106;2023-12-22T12:26:57;12.10;60.90
17918;DHT22;9084;50.956;3.106;2023-12-22T12:29:22;12.10;67.20
17918;DHT22;9084;50.956;3.106;2023-12-22T12:31:49;12.10;80.70
17918;DHT22;9084;50.956;3.106;2023-12-22T12:34:14;12.10;84.20
17918;DHT22;9084;50.956;3.106;2023-12-22T12:36:46;12.20;84.60
17918;DHT22;9084;50.956;3.106;2023-12-22T12:39:14;12.20;80.60
17918;DHT22;9084;50.956;3.106;2023-12-22T12:41:41;12.20;69.30
17918;DHT22;9084;50.956;3.106;2023-12-22T12:44:09;12.20;60.20
17918;DHT22;9084;50.956;3.106;2023-12-22T12:46:36;12.20;65.20
17918;DHT22;9084;50.956;3.106;2023-12-22T12:49:06;12.20;63.40
17918;DHT22;9084;50.956;3.106;2023-12-22T12:51:39;12.20;53.20
17918;DHT22;9084;50.956;3.106;2023-12-22T12:54:09;12.30;52.50
17918;DHT22;9084;50.956;3.106;2023-12-22T12:56:43;12.30;44.40
17918;DHT22;9084;50.956;3.106;2023-12-22T12:59:13;12.30;32.80
17918;DHT22;9084;50.956;3.106;2023-12-22T13:01:46;12.30;19.40
17918;DHT22;9084;50.956;3.106;2023-12-22T13:04:12;12.30;19.30
17918;DHT22;9084;50.956;3.106;2023-12-22T13:06:48;12.40;19.70
17918;DHT22;9084;50.956;3.106;2023-12-22T13:09:14;12.40;9.00
17918;DHT22;9084;50.956;3.106;2023-12-22T13:11:41;12.40;1.00
17918;DHT22;9084;50.956;3.106;2023-12-22T13:14:13;12.40;1.00
17918;DHT22;9084;50.956;3.106;2023-12-22T13:16:47;12.40;1.00
17918;DHT22;9084;50.956;3.106;2023-12-22T13:19:13;12.40;1.00
17918;DHT22;9084;50.956;3.106;2023-12-22T13:21:40;12.40;1.00
17918;DHT22;9084;50.956;3.106;2023-12-22T13:24:15;12.40;1.00
17918;DHT22;9084;50.956;3.106;2023-12-22T13:26:41;12.40;1.00
17918;DHT22;9084;50.956;3.106;2023-12-22T13:29:11;12.40;1.00
17918;DHT22;9084;50.956;3.106;2023-12-22T13:31:40;12.40;1.00
17918;DHT22;9084;50.956;3.106;2023-12-22T13:34:11;12.40;1.00
17918;DHT22;9084;50.956;3.106;2023-12-22T13:36:38;12.30;1.00
17918;DHT22;9084;50.956;3.106;2023-12-22T13:39:04;12.30;1.00
17918;DHT22;9084;50.956;3.106;2023-12-22T13:41:42;12.30;1.00
17918;DHT22;9084;50.956;3.106;2023-12-22T13:44:14;12.30;1.00
17918;DHT22;9084;50.956;3.106;2023-12-22T13:46:40;12.30;1.00
17918;DHT22;9084;50.956;3.106;2023-12-22T13:49:10;12.30;1.00
17918;DHT22;9084;50.956;3.106;2023-12-22T13:51:45;12.30;1.00
17918;DHT22;9084;50.956;3.106;2023-12-22T13:54:13;12.20;1.00
17918;DHT22;9084;50.956;3.106;2023-12-22T13:56:41;12.20;1.00
17918;DHT22;9084;50.956;3.106;2023-12-22T13:59:08;12.20;1.00
17918;DHT22;9084;50.956;3.106;2023-12-22T14:01:34;12.20;1.00
17918;DHT22;9084;50.956;3.106;2023-12-22T14:03:59;12.20;1.00
17918;DHT22;9084;50.956;3.106;2023-12-22T14:06:26;12.20;1.00
17918;DHT22;9084;50.956;3.106;2023-12-22T14:08:55;12.20;1.00
17918;DHT22;9084;50.956;3.106;2023-12-22T14:11:24;12.20;1.00
17918;DHT22;9084;50.956;3.106;2023-12-22T14:13:54;12.20;1.00
17918;DHT22;9084;50.956;3.106;2023-12-22T14:16:22;12.20;1.00
17918;DHT22;9084;50.956;3.106;2023-12-22T14:18:49;12.20;1.00
17918;DHT22;9084;50.956;3.106;2023-12-22T14:21:15;12.20;1.00
17918;DHT22;9084;50.956;3.106;2023-12-22T14:23:41;12.20;1.00
17918;DHT22;9084;50.956;3.106;2023-12-22T14:26:07;12.20;1.00
17918;DHT22;9084;50.956;3.106;2023-12-22T14:28:32;12.30;1.00
17918;DHT22;9084;50.956;3.106;2023-12-22T14:30:58;12.20;1.00
17918;DHT22;9084;50.956;3.106;2023-12-22T14:33:28;12.20;1.00
17918;DHT22;9084;50.956;3.106;2023-12-22T14:35:54;12.20;1.00
17918;DHT22;9084;50.956;3.106;2023-12-22T14:38:20;12.20;1.00
17918;DHT22;9084;50.956;3.106;2023-12-22T14:40:45;12.20;1.00
17918;DHT22;9084;50.956;3.106;2023-12-22T14:43:11;12.20;1.00
17918;DHT22;9084;50.956;3.106;2023-12-22T14:45:36;12.20;1.00
17918;DHT22;9084;50.956;3.106;2023-12-22T14:48:02;12.10;1.00
17918;DHT22;9084;50.956;3.106;2023-12-22T14:50:30;12.10;1.00
17918;DHT22;9084;50.956;3.106;2023-12-22T14:52:56;12.10;1.00
17918;DHT22;9084;50.956;3.106;2023-12-22T14:55:24;12.10;1.00
17918;DHT22;9084;50.956;3.106;2023-12-22T14:57:55;12.20;1.00
17918;DHT22;9084;50.956;3.106;2023-12-22T15:00:20;12.20;1.00
17918;DHT22;9084;50.956;3.106;2023-12-22T15:02:46;12.20;1.00
17918;DHT22;9084;50.956;3.106;2023-12-22T15:05:16;12.20;1.00
17918;DHT22;9084;50.956;3.106;2023-12-22T15:07:42;12.20;1.00
17918;DHT22;9084;50.956;3.106;2023-12-22T15:10:13;12.20;1.00
17918;DHT22;9084;50.956;3.106;2023-12-22T15:12:43;12.20;1.00
17918;DHT22;9084;50.956;3.106;2023-12-22T15:15:09;12.20;1.00
17918;DHT22;9084;50.956;3.106;2023-12-22T15:17:35;12.20;1.00
17918;DHT22;9084;50.956;3.106;2023-12-22T15:20:00;12.20;1.00
17918;DHT22;9084;50.956;3.106;2023-12-22T15:22:29;12.20;1.00
17918;DHT22;9084;50.956;3.106;2023-12-22T15:24:57;12.20;1.00
17918;DHT22;9084;50.956;3.106;2023-12-22T15:27:22;12.20;1.00
17918;DHT22;9084;50.956;3.106;2023-12-22T15:29:48;12.10;1.00
17918;DHT22;9084;50.956;3.106;2023-12-22T15:32:16;12.20;1.00
17918;DHT22;9084;50.956;3.106;2023-12-22T15:34:42;12.20;1.00
17918;DHT22;9084;50.956;3.106;2023-12-22T15:37:08;12.20;1.00
17918;DHT22;9084;50.956;3.106;2023-12-22T15:39:34;12.20;1.00
17918;DHT22;9084;50.956;3.106;2023-12-22T15:42:00;12.20;1.00
17918;DHT22;9084;50.956;3.106;2023-12-22T15:44:26;12.20;1.00
17918;DHT22;9084;50.956;3.106;2023-12-22T15:46:54;12.20;1.00
17918;DHT22;9084;50.956;3.106;2023-12-22T15:49:20;12.20;1.00
17918;DHT22;9084;50.956;3.106;2023-12-22T15:51:46;12.20;1.00
17918;DHT22;9084;50.956;3.106;2023-12-22T15:54:12;12.20;1.00
17918;DHT22;9084;50.956;3.106;2023-12-22T15:56:41;12.20;1.00
17918;DHT22;9084;50.956;3.106;2023-12-22T15:59:07;12.20;1.00
17918;DHT22;9084;50.956;3.106;2023-12-22T16:01:32;12.10;1.00
17918;DHT22;9084;50.956;3.106;2023-12-22T16:03:58;12.10;1.00
17918;DHT22;9084;50.956;3.106;2023-12-22T16:06:26;12.10;1.00
17918;DHT22;9084;50.956;3.106;2023-12-22T16:08:51;12.10;1.00
17918;DHT22;9084;50.956;3.106;2023-12-22T16:11:19;12.10;1.00
17918;DHT22;9084;50.956;3.106;2023-12-22T16:13:46;12.00;1.00